Terminal Aerodrome Forecast
Issued by NWS

Home | Current Version | Previous Version | Text Only | Print | Product List | Glossary Off
Versions: 1 2 3 4 5 6 7 8 9 10 11 12 13 14 15 16 17 18 19

444
FTUS43 KBIS 271737
TAFDIK
TAF
KDIK 271737Z 2718/2818 17008KT P6SM FEW250
     FM272000 14010KT P6SM FEW250
     FM280300 12006KT P6SM FEW250
     FM281000 11005KT P6SM FEW020 SCT250
     FM281400 12007KT P6SM BKN220=

USA.gov is the U.S. government's official web portal to all federal, state and local government web resources and services.